createdAt,value
2022-08-17T00:01:51.839Z,100650.25
2022-08-17T00:04:30.715Z,100642.41
2022-08-17T00:07:04.707Z,100647.66
2022-08-17T00:09:36.791Z,100651.66
2022-08-17T00:12:40.631Z,100649.06
2022-08-17T00:15:08.302Z,100646.31
2022-08-17T00:17:48.829Z,100649.56
2022-08-17T00:20:33.557Z,100652.28
2022-08-17T00:23:21.609Z,100649.09
2022-08-17T00:25:55.539Z,100653.03
2022-08-17T00:28:37.206Z,100651.47
2022-08-17T00:31:14.393Z,100657.25
2022-08-17T00:33:47.583Z,100655.06
2022-08-17T00:36:30.604Z,100654.03
2022-08-17T00:39:05.129Z,100652.34
2022-08-17T00:41:42.894Z,100648.47
2022-08-17T00:44:12.742Z,100650.09
2022-08-17T00:46:48.656Z,100656.06
2022-08-17T00:49:27.315Z,100643.78
2022-08-17T00:52:13.511Z,100651.13
2022-08-17T00:54:53.117Z,100645.25
2022-08-17T00:57:55.508Z,100649.59
2022-08-17T01:00:40.117Z,100651.69
2022-08-17T01:03:26.079Z,100643.53
2022-08-17T01:06:04.188Z,100642.88
2022-08-17T01:08:37.986Z,100647.84
2022-08-17T01:11:13.744Z,100653.41
2022-08-17T01:13:48.163Z,100651.69
2022-08-17T01:16:34.871Z,100658.84
2022-08-17T01:19:23.513Z,100660.81
2022-08-17T01:22:24.060Z,100654.13
2022-08-17T01:25:04.932Z,100664.00
2022-08-17T01:27:38.225Z,100656.00
2022-08-17T01:30:56.716Z,100661.56
2022-08-17T01:33:06.196Z,100664.28
2022-08-17T01:35:40.126Z,100663.00
2022-08-17T01:38:10.036Z,100670.47
2022-08-17T01:40:57.559Z,100670.16
2022-08-17T01:43:52.547Z,100669.91
2022-08-17T01:48:58.540Z,100678.44
2022-08-17T01:51:37.980Z,100678.34
2022-08-17T01:54:17.826Z,100682.44
2022-08-17T01:56:54.602Z,100677.28
2022-08-17T01:59:39.568Z,100682.06
2022-08-17T02:02:30.356Z,100682.75
2022-08-17T02:05:04.736Z,100668.81
2022-08-17T02:07:59.955Z,100669.66
2022-08-17T02:10:36.164Z,100671.25
2022-08-17T02:13:20.213Z,100673.66
2022-08-17T02:15:58.314Z,100674.00
2022-08-17T02:18:29.433Z,100675.63
2022-08-17T02:21:09.379Z,100672.88
2022-08-17T02:23:49.124Z,100672.16
2022-08-17T02:26:24.081Z,100677.28
2022-08-17T02:28:57.487Z,100678.44
2022-08-17T02:31:33.850Z,100675.28
2022-08-17T02:34:05.347Z,100676.03
2022-08-17T02:36:38.766Z,100668.91
2022-08-17T02:39:13.022Z,100666.63
2022-08-17T02:41:45.704Z,100663.84
2022-08-17T02:44:35.371Z,100666.28
2022-08-17T02:47:14.092Z,100665.09
2022-08-17T02:49:55.363Z,100669.84
2022-08-17T02:52:55.254Z,100661.44
2022-08-17T02:55:40.733Z,100663.78
2022-08-17T02:58:27.330Z,100667.41
2022-08-17T03:01:14.646Z,100670.59
2022-08-17T03:03:43.897Z,100667.88
2022-08-17T03:06:13.566Z,100669.88
2022-08-17T03:08:48.532Z,100665.91
2022-08-17T03:11:20.196Z,100666.69
2022-08-17T03:13:51.787Z,100665.53
2022-08-17T03:16:29.122Z,100662.75
2022-08-17T03:21:55.187Z,100665.59
2022-08-17T03:24:28.609Z,100664.28
2022-08-17T03:26:57.193Z,100661.16
2022-08-17T03:29:25.405Z,100656.81
2022-08-17T03:31:53.602Z,100654.84
2022-08-17T03:34:21.843Z,100654.06
2022-08-17T03:36:50.333Z,100652.06
2022-08-17T03:39:18.673Z,100657.22
2022-08-17T03:41:46.855Z,100660.34
2022-08-17T03:44:15.081Z,100658.34
2022-08-17T03:47:01.735Z,100657.56
2022-08-17T03:49:48.418Z,100653.25
2022-08-17T03:52:35.043Z,100654.13
2022-08-17T03:55:21.712Z,100657.25
2022-08-17T03:58:04.690Z,100662.78
2022-08-17T04:00:34.983Z,100659.25
2022-08-17T04:03:08.007Z,100662.41
2022-08-17T04:05:37.430Z,100664.41
2022-08-17T04:08:05.874Z,100662.00
2022-08-17T04:10:38.393Z,100666.31
2022-08-17T04:13:14.214Z,100660.38
2022-08-17T04:15:42.472Z,100663.91
2022-08-17T04:18:11.033Z,100669.09
2022-08-17T04:20:39.378Z,100669.53
2022-08-17T04:23:11.973Z,100662.78
2022-08-17T04:25:49.246Z,100672.66
2022-08-17T04:28:19.797Z,100674.19
2022-08-17T04:30:48.409Z,100668.59
2022-08-17T04:33:24.292Z,100672.16
2022-08-17T04:36:01.237Z,100678.91
2022-08-17T04:38:33.906Z,100675.44
2022-08-17T04:41:21.445Z,100677.81
2022-08-17T04:43:55.141Z,100684.44
2022-08-17T04:46:28.552Z,100691.47
2022-08-17T04:48:57.917Z,100690.69
2022-08-17T04:51:32.004Z,100685.16
2022-08-17T04:54:15.970Z,100685.13
2022-08-17T04:56:45.071Z,100688.31
2022-08-17T04:59:18.591Z,100681.19
2022-08-17T05:01:50.446Z,100687.00
2022-08-17T05:04:34.073Z,100685.34
2022-08-17T05:07:04.605Z,100687.38
2022-08-17T05:09:32.948Z,100682.28
2022-08-17T05:12:02.506Z,100696.16
2022-08-17T05:14:33.103Z,100692.44
2022-08-17T05:17:07.081Z,100699.63
2022-08-17T05:19:39.087Z,100706.28
2022-08-17T05:22:07.275Z,100709.81
2022-08-17T05:24:40.807Z,100710.66
2022-08-17T05:27:16.788Z,100723.50
2022-08-17T05:29:47.556Z,100716.41
2022-08-17T05:32:37.374Z,100711.88
2022-08-17T05:35:06.076Z,100722.19
2022-08-17T05:37:34.404Z,100722.59
2022-08-17T05:40:02.874Z,100718.16
2022-08-17T05:42:31.234Z,100725.88
2022-08-17T05:44:59.541Z,100725.50
2022-08-17T05:47:30.440Z,100726.28
2022-08-17T05:50:01.202Z,100726.28
2022-08-17T05:53:02.695Z,100727.88
2022-08-17T05:56:03.869Z,100728.81
2022-08-17T05:59:04.449Z,100723.88
2022-08-17T06:01:52.737Z,100726.56
2022-08-17T06:05:04.801Z,100732.97
2022-08-17T06:08:15.606Z,100727.34
2022-08-17T06:11:29.795Z,100730.13
2022-08-17T06:14:32.228Z,100733.44
2022-08-17T06:17:13.396Z,100727.59
2022-08-17T06:20:02.956Z,100732.06
2022-08-17T06:22:42.383Z,100740.84
2022-08-17T06:25:32.178Z,100744.69
2022-08-17T06:28:14.842Z,100740.84
2022-08-17T06:31:00.811Z,100749.44
2022-08-17T06:33:37.564Z,100736.16
2022-08-17T06:36:22.455Z,100741.91
2022-08-17T06:39:39.007Z,100745.59
2022-08-17T06:43:06.180Z,100747.06
2022-08-17T06:45:34.489Z,100743.44
2022-08-17T06:48:11.751Z,100748.31
2022-08-17T06:50:50.928Z,100748.19
2022-08-17T06:54:05.602Z,100747.97
2022-08-17T06:56:57.409Z,100746.41
2022-08-17T06:59:54.792Z,100745.69
2022-08-17T07:02:59.995Z,100747.22
2022-08-17T07:05:57.533Z,100740.63
2022-08-17T07:08:51.009Z,100742.69
2022-08-17T07:11:59.113Z,100739.59
2022-08-17T07:14:51.897Z,100739.75
2022-08-17T07:17:46.868Z,100737.63
2022-08-17T07:20:20.549Z,100737.44
2022-08-17T07:23:19.210Z,100737.91
2022-08-17T07:25:49.241Z,100739.25
2022-08-17T07:28:23.189Z,100739.81
2022-08-17T07:30:54.782Z,100741.59
2022-08-17T07:33:31.066Z,100740.63
2022-08-17T07:36:00.336Z,100738.75
2022-08-17T07:38:32.009Z,100748.22
2022-08-17T07:41:08.568Z,100751.88
2022-08-17T07:43:39.671Z,100752.06
2022-08-17T07:46:48.380Z,100760.19
2022-08-17T07:49:41.201Z,100754.59
2022-08-17T07:52:51.166Z,100752.59
2022-08-17T07:55:35.057Z,100749.66
2022-08-17T07:58:03.700Z,100748.00
2022-08-17T08:00:33.704Z,100750.00
2022-08-17T08:03:28.437Z,100747.28
2022-08-17T08:06:02.219Z,100749.97
2022-08-17T08:08:42.652Z,100745.78
2022-08-17T08:11:15.593Z,100746.41
2022-08-17T08:13:45.804Z,100753.94
2022-08-17T08:16:27.673Z,100756.75
2022-08-17T08:19:00.438Z,100756.56
2022-08-17T08:21:34.301Z,100761.41
2022-08-17T08:24:40.334Z,100758.59
2022-08-17T08:27:36.278Z,100763.41
2022-08-17T08:30:21.417Z,100762.03
2022-08-17T08:32:50.191Z,100770.22
2022-08-17T08:35:44.487Z,100763.50
2022-08-17T08:38:34.518Z,100759.88
2022-08-17T08:41:36.939Z,100754.34
2022-08-17T08:44:59.982Z,100748.53
2022-08-17T08:48:05.475Z,100749.13
2022-08-17T08:51:20.747Z,100751.59
2022-08-17T08:54:28.597Z,100741.47
2022-08-17T08:57:26.691Z,100759.97
2022-08-17T09:00:20.738Z,100744.72
2022-08-17T09:03:14.178Z,100743.41
2022-08-17T09:05:57.228Z,100739.41
2022-08-17T09:09:02.022Z,100750.28
2022-08-17T09:11:35.803Z,100748.06
2022-08-17T09:14:47.163Z,100755.47
2022-08-17T09:17:21.990Z,100749.97
2022-08-17T09:20:11.237Z,100740.63
2022-08-17T09:22:52.745Z,100738.25
2022-08-17T09:25:32.563Z,100747.81
2022-08-17T09:28:20.825Z,100741.56
2022-08-17T09:31:02.533Z,100737.00
2022-08-17T09:33:42.529Z,100735.72
2022-08-17T09:36:28.705Z,100736.13
2022-08-17T09:39:13.821Z,100738.06
2022-08-17T09:42:09.197Z,100739.31
2022-08-17T09:45:15.495Z,100733.03
2022-08-17T09:48:14.381Z,100743.25
2022-08-17T09:51:32.083Z,100744.94
2022-08-17T09:54:21.062Z,100746.06
2022-08-17T09:57:37.892Z,100744.56
2022-08-17T10:00:16.301Z,100737.03
2022-08-17T10:03:09.587Z,100734.22
2022-08-17T10:05:57.077Z,100735.25
2022-08-17T10:08:52.527Z,100724.34
2022-08-17T10:12:17.075Z,100724.34
2022-08-17T10:15:19.020Z,100722.00
2022-08-17T10:18:31.871Z,100715.69
2022-08-17T10:21:25.079Z,100725.00
2022-08-17T10:25:01.883Z,100726.00
2022-08-17T10:27:57.692Z,100726.28
2022-08-17T10:30:31.551Z,100731.66
2022-08-17T10:33:06.813Z,100724.19
2022-08-17T10:35:51.486Z,100732.19
2022-08-17T10:38:48.056Z,100725.84
2022-08-17T10:41:29.119Z,100722.84
2022-08-17T10:44:38.381Z,100726.78
2022-08-17T10:47:15.455Z,100727.63
2022-08-17T10:49:54.082Z,100728.56
2022-08-17T10:52:22.833Z,100722.00
2022-08-17T10:54:58.809Z,100726.44
2022-08-17T10:57:27.155Z,100728.75
2022-08-17T11:00:01.541Z,100725.88
2022-08-17T11:02:40.928Z,100729.44
2022-08-17T11:05:33.075Z,100725.09
2022-08-17T11:08:24.921Z,100725.56
2022-08-17T11:11:11.909Z,100722.53
2022-08-17T11:13:56.068Z,100715.78
2022-08-17T11:16:51.245Z,100697.91
2022-08-17T11:19:47.033Z,100709.94
2022-08-17T11:23:19.714Z,100712.38
2022-08-17T11:25:58.962Z,100710.97
2022-08-17T11:28:44.376Z,100707.78
2022-08-17T11:31:40.161Z,100698.25
2022-08-17T11:34:26.597Z,100697.22
2022-08-17T11:37:30.119Z,100697.81
2022-08-17T11:40:37.515Z,100695.44
2022-08-17T11:43:56.004Z,100699.94
2022-08-17T11:47:08.688Z,100694.50
2022-08-17T11:50:15.571Z,100692.97
2022-08-17T11:52:48.466Z,100684.47
2022-08-17T11:55:39.635Z,100680.31
2022-08-17T11:58:43.177Z,100682.75
2022-08-17T12:01:22.197Z,100679.50
2022-08-17T12:03:57.046Z,100685.25
2022-08-17T12:06:32.028Z,100680.06
2022-08-17T12:09:27.459Z,100690.13
2022-08-17T12:12:17.560Z,100682.16
2022-08-17T12:15:12.921Z,100682.56
2022-08-17T12:17:42.901Z,100685.75
2022-08-17T12:20:27.146Z,100687.06
2022-08-17T12:23:18.506Z,100688.50
2022-08-17T12:26:22.701Z,100681.84
2022-08-17T12:29:01.118Z,100688.00
2022-08-17T12:31:51.751Z,100678.56
2022-08-17T12:34:45.418Z,100682.53
2022-08-17T12:37:27.523Z,100688.50
2022-08-17T12:40:27.162Z,100683.78
2022-08-17T12:43:03.194Z,100679.25
2022-08-17T12:45:36.009Z,100679.19
2022-08-17T12:48:24.453Z,100678.06
2022-08-17T12:51:05.964Z,100680.19
2022-08-17T12:53:37.418Z,100679.75
2022-08-17T12:56:13.376Z,100676.59
2022-08-17T12:58:56.587Z,100674.34
2022-08-17T13:01:26.118Z,100662.16
2022-08-17T13:03:59.761Z,100649.16
2022-08-17T13:06:33.434Z,100650.63
2022-08-17T13:09:21.995Z,100652.41
2022-08-17T13:12:05.153Z,100656.22
2022-08-17T13:14:34.205Z,100650.06
2022-08-17T13:17:08.540Z,100639.59
2022-08-17T13:19:50.419Z,100643.94
2022-08-17T13:22:24.719Z,100640.59
2022-08-17T13:25:05.460Z,100648.09
2022-08-17T13:27:34.107Z,100646.16
2022-08-17T13:30:11.740Z,100654.78
2022-08-17T13:32:46.455Z,100651.06
2022-08-17T13:35:43.679Z,100645.22
2022-08-17T13:38:35.936Z,100650.78
2022-08-17T13:41:06.382Z,100650.44
2022-08-17T13:43:45.617Z,100648.34
2022-08-17T13:46:27.031Z,100647.56
2022-08-17T13:49:06.051Z,100659.00
2022-08-17T13:51:46.672Z,100642.47
2022-08-17T13:54:37.840Z,100650.22
2022-08-17T13:57:12.090Z,100646.25
2022-08-17T13:59:55.109Z,100639.50
2022-08-17T14:02:28.249Z,100643.34
2022-08-17T14:04:58.632Z,100644.75
2022-08-17T14:07:35.378Z,100641.06
2022-08-17T14:10:11.066Z,100646.59
2022-08-17T14:12:43.031Z,100641.97
2022-08-17T14:15:15.658Z,100638.16
2022-08-17T14:17:43.914Z,100632.91
2022-08-17T14:20:14.330Z,100632.88
2022-08-17T14:22:54.079Z,100636.41
2022-08-17T14:25:29.421Z,100641.75
2022-08-17T14:27:58.157Z,100634.16
2022-08-17T14:30:29.969Z,100634.47
2022-08-17T14:32:59.453Z,100633.78
2022-08-17T14:35:29.513Z,100628.94
2022-08-17T14:37:57.930Z,100628.75
2022-08-17T14:40:26.277Z,100625.41
2022-08-17T14:42:57.807Z,100627.34
2022-08-17T14:45:32.003Z,100626.34
2022-08-17T14:48:04.611Z,100627.72
2022-08-17T14:50:35.407Z,100627.97
2022-08-17T14:53:07.056Z,100628.22
2022-08-17T14:55:36.910Z,100625.88
2022-08-17T14:58:05.216Z,100623.38
2022-08-17T15:00:34.369Z,100633.72
2022-08-17T15:03:03.369Z,100623.03
2022-08-17T15:05:36.629Z,100623.75
2022-08-17T15:08:06.813Z,100625.72
2022-08-17T15:10:36.044Z,100616.97
2022-08-17T15:13:04.700Z,100624.06
2022-08-17T15:15:32.992Z,100625.09
2022-08-17T15:18:02.594Z,100619.13
2022-08-17T15:20:31.091Z,100620.88
2022-08-17T15:22:59.625Z,100617.38
2022-08-17T15:25:31.830Z,100619.19
2022-08-17T15:28:00.976Z,100619.72
2022-08-17T15:30:31.190Z,100617.09
2022-08-17T15:33:00.619Z,100626.31
2022-08-17T15:35:32.830Z,100618.72
2022-08-17T15:38:11.136Z,100617.50
2022-08-17T15:40:46.394Z,100609.59
2022-08-17T15:43:23.275Z,100612.47
2022-08-17T15:46:04.148Z,100608.25
2022-08-17T15:48:43.854Z,100607.91
2022-08-17T15:51:30.000Z,100612.19
2022-08-17T15:54:04.524Z,100611.91
2022-08-17T15:56:47.731Z,100605.94
2022-08-17T15:59:15.937Z,100594.28
2022-08-17T16:03:14.238Z,100601.25
2022-08-17T16:04:32.515Z,100600.06
2022-08-17T16:07:00.838Z,100593.31
2022-08-17T16:09:29.086Z,100601.22
2022-08-17T16:11:57.299Z,100603.03
2022-08-17T16:14:30.326Z,100594.66
2022-08-17T16:17:05.880Z,100591.16
2022-08-17T16:19:54.779Z,100600.59
2022-08-17T16:22:37.474Z,100601.72
2022-08-17T16:25:16.832Z,100593.94
2022-08-17T16:27:48.129Z,100605.84
2022-08-17T16:30:17.666Z,100601.66
2022-08-17T16:32:51.531Z,100606.19
2022-08-17T16:35:25.178Z,100593.88
2022-08-17T16:37:57.271Z,100586.78
2022-08-17T16:40:29.723Z,100582.38
2022-08-17T16:43:01.675Z,100590.34
2022-08-17T16:45:36.849Z,100592.41
2022-08-17T16:48:05.324Z,100590.97
2022-08-17T16:50:33.991Z,100583.69
2022-08-17T16:53:09.064Z,100586.81
2022-08-17T16:55:38.576Z,100590.34
2022-08-17T16:58:08.864Z,100590.97
2022-08-17T17:00:39.256Z,100586.59
2022-08-17T17:03:19.506Z,100583.78
2022-08-17T17:06:09.915Z,100584.38
2022-08-17T17:08:48.983Z,100577.72
2022-08-17T17:11:44.546Z,100586.78
2022-08-17T17:14:44.877Z,100586.53
2022-08-17T17:17:37.255Z,100587.72
2022-08-17T17:20:32.995Z,100582.91
2022-08-17T17:23:06.103Z,100583.31
2022-08-17T17:25:55.704Z,100592.88
2022-08-17T17:29:18.234Z,100590.78
2022-08-17T17:32:35.909Z,100589.91
2022-08-17T17:35:14.416Z,100591.06
2022-08-17T17:37:46.373Z,100587.34
2022-08-17T17:40:24.514Z,100591.94
2022-08-17T17:43:14.379Z,100589.13
2022-08-17T17:46:27.588Z,100589.34
2022-08-17T17:48:58.381Z,100587.41
2022-08-17T17:52:08.873Z,100586.00
2022-08-17T17:55:13.209Z,100588.31
2022-08-17T17:57:54.535Z,100585.09
2022-08-17T18:00:40.915Z,100592.53
2022-08-17T18:03:51.573Z,100594.06
2022-08-17T18:06:55.730Z,100594.78
2022-08-17T18:09:26.661Z,100603.75
2022-08-17T18:12:36.935Z,100605.28
2022-08-17T18:15:21.886Z,100602.25
2022-08-17T18:18:33.167Z,100598.53
2022-08-17T18:21:07.294Z,100602.78
2022-08-17T18:23:35.515Z,100604.63
2022-08-17T18:26:03.755Z,100598.38
2022-08-17T18:28:34.777Z,100598.88
2022-08-17T18:31:23.357Z,100606.41
2022-08-17T18:34:29.448Z,100598.78
2022-08-17T18:37:05.958Z,100600.34
2022-08-17T18:39:36.998Z,100610.56
2022-08-17T18:42:29.142Z,100614.31
2022-08-17T18:44:57.583Z,100616.09
2022-08-17T18:47:29.285Z,100608.28
2022-08-17T18:50:41.204Z,100615.19
2022-08-17T18:53:34.655Z,100620.97
2022-08-17T18:56:51.566Z,100618.47
2022-08-17T18:59:28.104Z,100616.88
2022-08-17T19:02:43.822Z,100616.09
2022-08-17T19:05:39.616Z,100621.25
2022-08-17T19:08:29.448Z,100624.34
2022-08-17T19:11:26.011Z,100618.00
2022-08-17T19:14:12.168Z,100626.41
2022-08-17T19:17:16.541Z,100620.09
2022-08-17T19:19:59.892Z,100623.63
2022-08-17T19:23:02.329Z,100621.31
2022-08-17T19:25:38.095Z,100621.22
2022-08-17T19:28:23.038Z,100622.03
2022-08-17T19:30:59.420Z,100613.13
2022-08-17T19:33:28.919Z,100617.03
2022-08-17T19:35:57.427Z,100618.47
2022-08-17T19:38:56.406Z,100621.03
2022-08-17T19:41:47.823Z,100619.25
2022-08-17T19:44:51.292Z,100613.28
2022-08-17T19:48:04.987Z,100619.19
2022-08-17T19:50:41.370Z,100619.72
2022-08-17T19:54:01.766Z,100608.72
2022-08-17T19:56:55.761Z,100606.38
2022-08-17T19:59:37.535Z,100614.63
2022-08-17T20:02:53.509Z,100623.56
2022-08-17T20:06:00.876Z,100612.69
2022-08-17T20:08:29.100Z,100611.13
2022-08-17T20:11:28.155Z,100616.50
2022-08-17T20:14:00.478Z,100613.03
2022-08-17T20:16:29.369Z,100613.72
2022-08-17T20:19:22.613Z,100608.13
2022-08-17T20:22:00.152Z,100616.28
2022-08-17T20:25:02.198Z,100614.19
2022-08-17T20:27:47.328Z,100614.28
2022-08-17T20:30:30.104Z,100605.66
2022-08-17T20:32:59.899Z,100602.94
2022-08-17T20:35:36.319Z,100604.66
2022-08-17T20:38:33.560Z,100606.00
2022-08-17T20:41:04.679Z,100606.25
2022-08-17T20:43:35.606Z,100609.81
2022-08-17T20:46:21.020Z,100608.59
2022-08-17T20:49:00.652Z,100596.81
2022-08-17T20:52:00.468Z,100602.94
2022-08-17T20:54:42.152Z,100600.28
2022-08-17T20:57:32.710Z,100605.44
2022-08-17T21:00:15.596Z,100603.28
2022-08-17T21:02:49.827Z,100603.28
2022-08-17T21:06:12.587Z,100604.81
2022-08-17T21:09:12.581Z,100604.91
2022-08-17T21:12:04.515Z,100605.72
2022-08-17T21:14:58.099Z,100609.66
2022-08-17T21:17:59.262Z,100612.03
2022-08-17T21:21:04.867Z,100611.38
2022-08-17T21:24:09.969Z,100627.03
2022-08-17T21:27:02.150Z,100624.81
2022-08-17T21:29:34.067Z,100621.19
2022-08-17T21:32:09.560Z,100625.56
2022-08-17T21:35:07.547Z,100623.91
2022-08-17T21:37:46.557Z,100618.22
2022-08-17T21:40:18.057Z,100620.19
2022-08-17T21:42:59.263Z,100621.09
2022-08-17T21:45:36.516Z,100620.44
2022-08-17T21:48:21.638Z,100622.78
2022-08-17T21:51:29.142Z,100619.75
2022-08-17T21:54:03.241Z,100626.28
2022-08-17T21:56:40.421Z,100627.81
2022-08-17T21:59:38.093Z,100635.88
2022-08-17T22:02:27.288Z,100631.28
2022-08-17T22:05:12.900Z,100636.59
2022-08-17T22:07:50.694Z,100628.84
2022-08-17T22:10:31.133Z,100625.41
2022-08-17T22:13:17.066Z,100639.59
2022-08-17T22:16:15.416Z,100633.88
2022-08-17T22:18:58.095Z,100640.06
2022-08-17T22:21:27.343Z,100640.44
2022-08-17T22:24:59.822Z,100637.44
2022-08-17T22:28:02.505Z,100635.03
2022-08-17T22:34:47.594Z,100639.78
2022-08-17T22:37:27.220Z,100637.31
2022-08-17T22:39:59.637Z,100635.13
2022-08-17T22:42:28.669Z,100636.44
2022-08-17T22:44:57.075Z,100634.47
2022-08-17T22:47:43.027Z,100635.06
2022-08-17T22:50:28.305Z,100641.63
2022-08-17T22:53:34.032Z,100635.06
2022-08-17T22:56:21.537Z,100646.59
2022-08-17T22:59:16.865Z,100638.06
2022-08-17T23:02:15.654Z,100638.97
2022-08-17T23:04:51.446Z,100635.75
2022-08-17T23:07:22.868Z,100627.47
2022-08-17T23:17:37.193Z,100636.81
2022-08-17T23:20:09.398Z,100634.09
2022-08-17T23:22:52.145Z,100635.66
2022-08-17T23:25:29.880Z,100639.09
2022-08-17T23:28:01.890Z,100639.88
2022-08-17T23:30:34.779Z,100636.34
2022-08-17T23:33:08.516Z,100634.28
2022-08-17T23:35:38.913Z,100630.97
2022-08-17T23:38:13.389Z,100637.47
2022-08-17T23:40:41.695Z,100633.38
2022-08-17T23:43:24.742Z,100630.06
2022-08-17T23:45:58.011Z,100623.56
2022-08-17T23:48:35.085Z,100632.50
2022-08-17T23:51:14.843Z,100620.63
2022-08-17T23:53:48.766Z,100618.97
2022-08-17T23:56:23.319Z,100618.34
2022-08-17T23:58:58.540Z,100619.59
